createdAt,value
2018-11-20T00:08:13.292Z,55.42
2018-11-20T00:16:35.293Z,55.32
2018-11-20T00:24:56.410Z,55.37
2018-11-20T00:33:17.428Z,55.48
2018-11-20T00:41:38.411Z,55.47
2018-11-20T00:49:59.362Z,54.47
2018-11-20T00:58:20.335Z,52.89
2018-11-20T01:06:41.383Z,52.79
2018-11-20T01:15:02.424Z,53.06
2018-11-20T01:23:23.391Z,53.30
2018-11-20T01:31:44.356Z,53.66
2018-11-20T01:40:05.703Z,53.83
2018-11-20T01:48:26.721Z,53.91
2018-11-20T01:56:47.695Z,53.38
2018-11-20T02:05:08.726Z,53.24
2018-11-20T02:13:30.519Z,53.34
2018-11-20T02:21:51.518Z,53.17
2018-11-20T02:30:12.465Z,53.82
2018-11-20T02:38:33.456Z,53.59
2018-11-20T02:46:54.461Z,53.13
2018-11-20T02:55:15.473Z,53.95
2018-11-20T03:03:37.227Z,54.64
2018-11-20T03:11:59.049Z,54.49
2018-11-20T03:20:20.049Z,54.76
2018-11-20T03:28:41.157Z,55.23
2018-11-20T03:37:02.455Z,55.66
2018-11-20T03:45:23.569Z,56.24
2018-11-20T03:53:44.578Z,55.82
2018-11-20T04:02:05.561Z,56.46
2018-11-20T04:10:26.667Z,55.90
2018-11-20T04:18:47.972Z,55.78
2018-11-20T04:27:08.960Z,55.58
2018-11-20T04:35:29.914Z,55.61
2018-11-20T04:43:51.034Z,55.54
2018-11-20T04:52:12.153Z,55.61
2018-11-20T05:00:33.958Z,55.55
2018-11-20T05:08:55.026Z,55.27
2018-11-20T05:17:16.870Z,55.60
2018-11-20T05:25:37.940Z,55.62
2018-11-20T05:33:58.893Z,55.57
2018-11-20T05:42:19.978Z,55.51
2018-11-20T05:50:40.929Z,55.52
2018-11-20T05:59:01.969Z,55.27
2018-11-20T06:07:23.087Z,54.75
2018-11-20T06:15:44.034Z,54.26
2018-11-20T06:24:05.014Z,53.94
2018-11-20T06:32:25.997Z,53.88
2018-11-20T06:40:46.935Z,53.84
2018-11-20T06:49:07.913Z,53.97
2018-11-20T06:57:28.968Z,53.57
2018-11-20T07:05:49.884Z,54.15
2018-11-20T07:14:10.861Z,54.31
2018-11-20T07:22:31.905Z,54.72
2018-11-20T07:30:54.042Z,54.57
2018-11-20T07:39:14.921Z,54.64
2018-11-20T07:47:35.909Z,54.59
2018-11-20T07:55:57.903Z,54.23
2018-11-20T08:04:18.719Z,54.67
2018-11-20T08:12:39.756Z,54.78
2018-11-20T08:21:01.588Z,54.07
2018-11-20T08:29:22.578Z,53.94
2018-11-20T08:37:43.536Z,53.70
2018-11-20T08:46:04.592Z,54.41
2018-11-20T08:54:25.581Z,54.96
2018-11-20T09:02:46.601Z,54.71
2018-11-20T09:11:07.519Z,54.71
2018-11-20T09:19:28.626Z,54.62
2018-11-20T09:27:49.658Z,54.70
2018-11-20T09:36:10.702Z,54.00
2018-11-20T09:44:32.255Z,54.05
2018-11-20T09:52:53.290Z,53.35
2018-11-20T10:01:14.182Z,53.49
2018-11-20T10:09:35.176Z,53.19
2018-11-20T10:17:57.014Z,53.06
2018-11-20T10:26:17.999Z,52.85
2018-11-20T10:34:39.158Z,52.65
2018-11-20T10:43:00.120Z,53.03
2018-11-20T10:51:21.215Z,52.99
2018-11-20T10:59:42.287Z,53.02
2018-11-20T11:08:03.223Z,52.70
2018-11-20T11:16:24.308Z,53.10
2018-11-20T11:24:46.083Z,53.50
2018-11-20T11:33:07.055Z,53.35
2018-11-20T11:41:28.018Z,53.02
2018-11-20T11:49:49.830Z,53.53
2018-11-20T11:58:11.161Z,52.62
2018-11-20T12:06:32.244Z,51.95
2018-11-20T12:14:54.096Z,52.27
2018-11-20T12:23:15.070Z,52.14
2018-11-20T12:31:36.036Z,52.60
2018-11-20T12:39:58.434Z,52.72
2018-11-20T12:48:18.204Z,52.72
2018-11-20T12:56:39.287Z,53.09
2018-11-20T13:05:01.186Z,53.28
2018-11-20T13:13:22.287Z,53.68
2018-11-20T13:21:44.955Z,53.73
2018-11-20T13:30:04.216Z,53.90
2018-11-20T13:38:25.177Z,54.22
2018-11-20T13:46:46.287Z,54.44
2018-11-20T13:55:07.236Z,54.34
2018-11-20T14:03:28.244Z,54.11
2018-11-20T14:11:49.190Z,53.57
2018-11-20T14:20:10.161Z,53.60
2018-11-20T14:28:31.115Z,53.81
2018-11-20T14:36:52.163Z,53.91
2018-11-20T14:45:13.185Z,53.22
2018-11-20T14:53:34.173Z,53.66
2018-11-20T15:01:55.131Z,54.30
2018-11-20T15:10:16.201Z,54.75
2018-11-20T15:18:40.490Z,55.07
2018-11-20T15:26:58.910Z,56.66
2018-11-20T15:35:19.976Z,57.54
2018-11-20T15:43:41.302Z,60.29
2018-11-20T15:52:02.388Z,61.38
2018-11-20T16:00:23.367Z,62.48
2018-11-20T16:08:44.423Z,63.17
2018-11-20T16:17:16.468Z,62.62
2018-11-20T16:25:26.932Z,62.81
2018-11-20T16:33:48.125Z,62.80
2018-11-20T16:42:09.189Z,62.53
2018-11-20T16:50:30.319Z,62.64
2018-11-20T16:58:51.324Z,63.11
2018-11-20T17:07:12.669Z,63.00
2018-11-20T17:15:34.685Z,64.46
2018-11-20T17:23:55.841Z,64.36
2018-11-20T17:32:16.909Z,64.44
2018-11-20T17:40:38.331Z,64.31
2018-11-20T17:48:59.531Z,64.24
2018-11-20T17:57:20.620Z,64.83
2018-11-20T18:05:42.278Z,64.55
2018-11-20T18:14:04.042Z,64.90
2018-11-20T18:22:25.017Z,65.14
2018-11-20T18:30:46.792Z,65.49
2018-11-20T18:39:07.923Z,64.95
2018-11-20T18:47:29.269Z,65.27
2018-11-20T18:55:50.249Z,64.36
2018-11-20T19:04:11.315Z,64.63
2018-11-20T19:12:32.307Z,64.71
2018-11-20T19:20:53.366Z,64.16
2018-11-20T19:29:14.351Z,64.66
2018-11-20T19:37:35.781Z,65.67
2018-11-20T19:46:37.850Z,65.38
2018-11-20T19:54:58.909Z,65.33
2018-11-20T20:03:19.892Z,65.44
2018-11-20T20:11:40.924Z,64.48
2018-11-20T20:20:01.890Z,63.88
2018-11-20T20:28:22.950Z,64.48
2018-11-20T20:36:44.315Z,63.92
2018-11-20T20:45:05.286Z,63.76
2018-11-20T20:53:26.267Z,64.03
2018-11-20T21:01:47.219Z,64.30
2018-11-20T21:10:08.260Z,63.79
2018-11-20T21:18:29.345Z,63.89
2018-11-20T21:26:50.541Z,64.65
2018-11-20T21:35:11.653Z,65.34
2018-11-20T21:43:32.615Z,65.57
2018-11-20T21:51:53.638Z,65.99
2018-11-20T22:00:14.704Z,65.92
2018-11-20T22:08:35.680Z,65.71
2018-11-20T22:16:56.646Z,65.64
2018-11-20T22:25:17.617Z,65.42
2018-11-20T22:33:38.585Z,65.84
2018-11-20T22:41:59.565Z,65.89
2018-11-20T22:50:20.511Z,65.69
2018-11-20T22:58:41.648Z,65.57
2018-11-20T23:07:02.596Z,65.04
2018-11-20T23:15:23.563Z,65.30
2018-11-20T23:23:44.626Z,65.59
2018-11-20T23:32:05.664Z,65.89
2018-11-20T23:40:26.650Z,66.34
2018-11-20T23:48:47.614Z,66.33
2018-11-20T23:57:08.658Z,66.62
